Time;durP1;ratioP1;P1;durP2;ratioP2;P2;SDS_P1;SDS_P2;PMS_P1;PMS_P2;Temp;Humidity;BMP_temperature;BMP_pressure;BME280_temperature;BME280_humidity;BME280_pressure;Samples;Min_cycle;Max_cycle;Signal;HPM_P1;HPM_P2
2023/03/25 00:01:31;;;;;;;10.82;2.03;;;;;;;9.11;100.00;99834.69;10419203;28;20037;-77
2023/03/25 00:06:35;;;;;;;4.47;1.90;;;;;;;9.07;100.00;99829.75;10434679;28;20072;-77
2023/03/25 00:11:35;;;;;;;9.13;1.83;;;;;;;9.06;100.00;99833.59;10435578;28;20041;-78
2023/03/25 00:16:36;;;;;;;12.38;2.20;;;;;;;9.11;100.00;99829.19;10417309;28;20687;-77
2023/03/25 00:21:38;;;;;;;14.13;1.88;;;;;;;9.08;100.00;99809.44;10418924;28;20033;-78
2023/03/25 00:26:41;;;;;;;12.75;2.08;;;;;;;9.15;100.00;99824.81;10434969;28;20105;-78
2023/03/25 00:31:42;;;;;;;7.78;2.17;;;;;;;9.09;100.00;99815.75;10393715;28;20033;-77
2023/03/25 00:36:44;;;;;;;14.38;2.00;;;;;;;9.10;100.00;99822.91;10376363;28;20033;-77
2023/03/25 00:41:44;;;;;;;14.77;2.30;;;;;;;8.97;100.00;99815.16;10361728;28;20569;-77
2023/03/25 00:46:45;;;;;;;9.50;2.05;;;;;;;8.91;100.00;99818.97;10370626;28;20034;-77
2023/03/25 00:51:45;;;;;;;7.20;2.03;;;;;;;8.86;100.00;99801.38;10370628;28;20042;-75
2023/03/25 00:56:46;;;;;;;10.50;3.20;;;;;;;8.86;100.00;99811.56;10339613;28;20031;-76
2023/03/25 01:01:47;;;;;;;9.05;1.80;;;;;;;8.86;100.00;99808.81;10304655;28;20081;-75
2023/03/25 01:06:50;;;;;;;16.38;2.38;;;;;;;8.59;100.00;99741.22;10366382;28;20051;-77
2023/03/25 01:11:51;;;;;;;12.98;2.28;;;;;;;9.01;100.00;99814.38;10335378;28;20616;-76
2023/03/25 01:16:51;;;;;;;7.95;1.63;;;;;;;8.67;100.00;99820.25;10334743;28;20064;-74
2023/03/25 01:21:52;;;;;;;10.13;2.13;;;;;;;8.46;100.00;99818.53;10351489;28;20042;-71
2023/03/25 01:26:52;;;;;;;9.65;2.60;;;;;;;8.10;100.00;99812.78;10369408;28;20034;-68
2023/03/25 01:31:53;;;;;;;11.95;2.72;;;;;;;8.03;100.00;99825.91;10351298;28;20176;-70
2023/03/25 01:36:54;;;;;;;13.63;2.78;;;;;;;7.81;100.00;99813.13;10366406;28;20513;-71
2023/03/25 01:41:54;;;;;;;12.82;3.30;;;;;;;7.88;100.00;99818.38;10364776;28;20091;-71
2023/03/25 01:46:56;;;;;;;14.63;3.47;;;;;;;7.80;100.00;99810.66;10367957;28;20057;-70
2023/03/25 01:52:02;;;;;;;10.98;3.08;;;;;;;7.79;100.00;99812.56;10366887;28;20115;-70
2023/03/25 01:57:02;;;;;;;14.00;2.92;;;;;;;7.68;100.00;99806.16;10404637;28;20041;-70
2023/03/25 02:02:03;;;;;;;15.75;3.47;;;;;;;7.71;100.00;99810.31;10390479;28;20393;-70
2023/03/25 02:07:07;;;;;;;15.82;3.63;;;;;;;7.66;100.00;99816.56;10389848;28;20372;-71
2023/03/25 02:12:07;;;;;;;14.73;3.88;;;;;;;7.70;100.00;99807.81;10389565;28;20040;-71
2023/03/25 02:17:21;;;;;;;10.75;3.83;;;;;;;7.70;100.00;99797.69;10408201;28;20033;-73
2023/03/25 02:22:48;;;;;;;13.27;4.30;;;;;;;7.66;100.00;99804.78;10354621;28;20046;-73
2023/03/25 02:28:09;;;;;;;11.43;4.20;;;;;;;7.70;100.00;99807.81;10401831;28;20489;-73
2023/03/25 02:33:15;;;;;;;12.95;4.15;;;;;;;7.68;100.00;99805.34;10405592;28;20052;-73
2023/03/25 02:38:23;;;;;;;17.95;5.95;;;;;;;7.63;100.00;99808.06;10407348;28;20288;-74
2023/03/25 02:43:40;;;;;;;16.02;4.20;;;;;;;7.71;100.00;99807.56;10365951;28;20033;-73
2023/03/25 02:49:06;;;;;;;18.42;4.32;;;;;;;7.69;100.00;99787.84;10350183;28;20064;-75
2023/03/25 02:54:11;;;;;;;24.33;4.77;;;;;;;7.80;100.00;99807.91;10365084;28;20046;-76
2023/03/25 02:59:13;;;;;;;18.67;4.22;;;;;;;7.75;100.00;99785.94;10333058;28;20034;-75
2023/03/25 03:04:13;;;;;;;18.65;4.60;;;;;;;7.73;100.00;99788.97;10373904;28;20125;-74
2023/03/25 03:09:40;;;;;;;19.15;4.65;;;;;;;7.78;100.00;99797.19;10404173;28;20112;-76
2023/03/25 03:14:46;;;;;;;20.05;5.35;;;;;;;7.74;100.00;99796.06;10405731;28;20041;-76
2023/03/25 03:20:08;;;;;;;21.75;4.93;;;;;;;7.66;100.00;99788.34;10408314;28;20171;-75
2023/03/25 03:25:40;;;;;;;23.27;5.25;;;;;;;7.63;100.00;99797.09;10413164;28;20105;-76
2023/03/25 03:30:47;;;;;;;17.08;5.13;;;;;;;7.47;100.00;99772.31;10397713;28;20116;-75
2023/03/25 03:35:50;;;;;;;14.88;4.30;;;;;;;7.47;100.00;99775.03;10396000;28;20037;-75
2023/03/25 03:40:54;;;;;;;22.83;5.88;;;;;;;7.50;100.00;99773.69;10394820;28;20565;-76
2023/03/25 03:45:57;;;;;;;19.00;5.32;;;;;;;7.45;100.00;99790.91;10395146;28;20034;-75
2023/03/25 03:51:17;;;;;;;15.35;4.35;;;;;;;7.35;100.00;99760.69;10394179;28;20026;-72
2023/03/25 03:56:20;;;;;;;16.73;6.65;;;;;;;7.37;100.00;99785.91;10412384;28;20038;-72
2023/03/25 04:01:45;;;;;;;22.52;5.57;;;;;;;7.33;100.00;99776.56;10377584;28;20412;-73
2023/03/25 04:06:55;;;;;;;17.00;4.10;;;;;;;7.42;100.00;99788.69;10409875;28;20104;-73
2023/03/25 04:12:02;;;;;;;22.40;5.63;;;;;;;7.33;100.00;99762.03;10413005;28;20124;-75
2023/03/25 04:17:04;;;;;;;22.70;4.47;;;;;;;7.38;100.00;99770.28;10394854;28;20486;-74
2023/03/25 04:22:05;;;;;;;21.02;4.90;;;;;;;7.38;100.00;99773.88;10410192;28;20052;-74
2023/03/25 04:27:08;;;;;;;19.48;5.32;;;;;;;7.52;100.00;99792.59;10409515;28;20041;-75
2023/03/25 04:32:11;;;;;;;19.95;5.40;;;;;;;7.53;100.00;99786.06;10408623;28;20061;-75
2023/03/25 04:37:12;;;;;;;16.42;5.82;;;;;;;7.52;100.00;99773.44;10393331;28;20444;-74
2023/03/25 04:42:16;;;;;;;20.15;4.75;;;;;;;7.58;100.00;99778.69;10393401;28;20033;-74
2023/03/25 04:47:17;;;;;;;17.98;4.65;;;;;;;7.46;100.00;99764.34;10411278;28;20041;-74
2023/03/25 04:52:17;;;;;;;18.55;5.63;;;;;;;7.55;100.00;99781.13;10393653;28;20064;-72
2023/03/25 04:57:19;;;;;;;25.55;7.20;;;;;;;7.48;100.00;99782.19;10384411;28;20041;-72
2023/03/25 05:02:19;;;;;;;18.55;6.25;;;;;;;7.36;100.00;99758.78;10367729;28;20054;-71
2023/03/25 05:07:20;;;;;;;20.92;6.55;;;;;;;7.35;100.00;99755.22;10334425;28;20061;-72
2023/03/25 05:12:20;;;;;;;21.13;5.88;;;;;;;7.41;100.00;99773.34;10334693;28;20362;-73
2023/03/25 05:17:21;;;;;;;21.90;6.07;;;;;;;7.31;100.00;99766.97;10351475;28;20037;-72
2023/03/25 05:22:22;;;;;;;15.52;5.90;;;;;;;7.22;100.00;99750.19;10368566;28;20041;-71
2023/03/25 05:27:22;;;;;;;24.20;6.18;;;;;;;7.28;100.00;99780.06;10366879;28;20450;-73
2023/03/25 05:32:24;;;;;;;16.02;4.68;;;;;;;7.23;100.00;99751.81;10366944;28;20101;-68
2023/03/25 05:37:25;;;;;;;22.23;5.00;;;;;;;7.26;100.00;99775.94;10368332;28;20036;-70
2023/03/25 05:42:26;;;;;;;25.38;7.70;;;;;;;7.35;100.00;99793.53;10365326;28;20129;-69
2023/03/25 05:47:27;;;;;;;16.58;6.20;;;;;;;7.38;100.00;99798.53;10368453;28;20048;-71
2023/03/25 05:52:28;;;;;;;18.45;6.22;;;;;;;7.36;100.00;99794.38;10318197;28;20059;-72
2023/03/25 05:57:29;;;;;;;23.08;6.68;;;;;;;7.31;100.00;99781.47;10349429;28;20034;-72
2023/03/25 06:02:31;;;;;;;15.88;5.10;;;;;;;7.44;100.00;99797.47;10349506;28;20060;-72
2023/03/25 06:07:32;;;;;;;17.70;6.05;;;;;;;7.53;100.00;99799.75;10363520;28;20038;-72
2023/03/25 06:12:37;;;;;;;31.92;6.60;;;;;;;7.43;100.00;99776.66;10358863;28;20038;-73
2023/03/25 06:17:37;;;;;;;26.80;6.30;;;;;;;7.51;100.00;99789.03;10308308;28;20030;-73
2023/03/25 06:22:43;;;;;;;26.75;5.10;;;;;;;7.53;100.00;99773.19;10325321;28;20053;-74
2023/03/25 06:27:44;;;;;;;27.50;6.27;;;;;;;7.57;100.00;99778.97;10349680;28;20049;-73
2023/03/25 06:32:49;;;;;;;23.55;4.60;;;;;;;7.55;100.00;99783.88;10308749;28;20034;-73
2023/03/25 06:37:51;;;;;;;20.53;5.40;;;;;;;7.48;100.00;99782.19;10350659;28;20042;-74
2023/03/25 06:42:51;;;;;;;28.08;6.50;;;;;;;7.70;100.00;99789.47;10405812;28;20054;-74
2023/03/25 06:47:51;;;;;;;25.58;5.10;;;;;;;7.65;100.00;99798.47;10371996;28;20045;-74
2023/03/25 06:52:52;;;;;;;11.90;4.07;;;;;;;7.58;100.00;99784.16;10390082;28;20038;-78
2023/03/25 06:57:55;;;;;;;17.70;5.45;;;;;;;7.68;100.00;99797.13;10413399;28;20052;-75
2023/03/25 07:02:57;;;;;;;15.90;5.57;;;;;;;7.51;100.00;99796.44;10413921;28;20033;-73
2023/03/25 07:07:57;;;;;;;17.00;4.10;;;;;;;7.42;100.00;99799.66;10412311;28;20056;-74
2023/03/25 07:12:58;;;;;;;15.20;4.22;;;;;;;7.42;100.00;99788.69;10394187;28;20040;-74
2023/03/25 07:17:59;;;;;;;23.20;5.68;;;;;;;7.63;100.00;99799.84;10380680;28;20084;-74
2023/03/25 07:22:59;;;;;;;19.88;4.85;;;;;;;7.84;100.00;99785.19;10412651;28;20048;-74
2023/03/25 07:28:00;;;;;;;19.30;4.80;;;;;;;7.93;100.00;99798.41;10396017;28;20045;-74
2023/03/25 07:33:00;;;;;;;17.30;5.45;;;;;;;7.97;100.00;99791.31;10412535;28;20094;-75
2023/03/25 07:38:01;;;;;;;14.70;3.90;;;;;;;8.24;100.00;99800.25;10412079;28;20056;-76
2023/03/25 07:43:02;;;;;;;23.17;4.03;;;;;;;8.32;100.00;99784.41;10379245;28;20038;-75
2023/03/25 07:48:02;;;;;;;16.50;4.05;;;;;;;8.56;100.00;99801.25;10412935;28;20042;-73
2023/03/25 07:53:03;;;;;;;27.88;4.97;;;;;;;8.67;100.00;99787.34;10411949;28;20033;-73
2023/03/25 07:58:03;;;;;;;21.88;4.18;;;;;;;8.62;100.00;99795.56;10409795;28;20033;-72
2023/03/25 08:03:04;;;;;;;22.38;5.88;;;;;;;8.54;100.00;99798.81;10394870;28;20071;-73
2023/03/25 08:08:05;;;;;;;29.08;4.47;;;;;;;8.37;100.00;99798.97;10411758;28;20042;-72
2023/03/25 08:13:05;;;;;;;10.55;2.78;;;;;;;7.79;100.00;99787.06;10410646;28;20057;-71
2023/03/25 08:18:06;;;;;;;17.88;5.05;;;;;;;7.79;100.00;99818.06;10412637;28;20029;-71
2023/03/25 08:23:09;;;;;;;26.23;5.22;;;;;;;7.74;100.00;99814.44;10394683;28;20033;-73
2023/03/25 08:28:09;;;;;;;18.27;3.90;;;;;;;7.71;100.00;99824.00;10403193;28;20038;-72
2023/03/25 08:33:10;;;;;;;18.70;4.15;;;;;;;7.70;100.00;99821.53;10351581;28;20038;-73
2023/03/25 08:38:11;;;;;;;17.27;3.80;;;;;;;7.66;100.00;99829.44;10318556;28;20038;-74
2023/03/25 08:43:11;;;;;;;15.85;3.70;;;;;;;7.71;100.00;99834.97;10344546;28;20034;-73
2023/03/25 08:48:12;;;;;;;10.63;1.75;;;;;;;7.41;100.00;99824.56;10349452;28;20053;-72
2023/03/25 08:53:12;;;;;;;4.55;1.75;;;;;;;7.06;100.00;99812.97;10348298;28;20045;-72
2023/03/25 08:58:13;;;;;;;3.35;1.52;;;;;;;7.05;100.00;99833.22;10347314;28;20073;-70
2023/03/25 09:03:13;;;;;;;7.50;2.03;;;;;;;7.01;100.00;99818.41;10347415;28;20038;-71
2023/03/25 09:08:14;;;;;;;19.30;5.13;;;;;;;7.56;100.00;99821.13;10345129;28;20053;-72
2023/03/25 09:13:15;;;;;;;18.90;4.10;;;;;;;8.00;100.00;99826.41;10333118;28;20478;-72
2023/03/25 09:18:15;;;;;;;16.73;4.85;;;;;;;7.97;100.00;99833.25;10329465;28;20042;-72
2023/03/25 09:23:16;;;;;;;15.40;4.22;;;;;;;8.09;100.00;99824.84;10348321;28;20045;-72
2023/03/25 09:28:16;;;;;;;22.45;3.67;;;;;;;8.17;100.00;99824.34;10329352;28;20096;-70
2023/03/25 09:33:18;;;;;;;27.35;5.10;;;;;;;8.72;100.00;99826.84;10346799;28;20034;-79
2023/03/25 09:38:18;;;;;;;31.60;5.20;;;;;;;8.92;100.00;99835.19;10339238;28;20123;-76
2023/03/25 09:43:34;;;;;;;14.43;4.22;;;;;;;8.78;100.00;99825.78;10315030;28;20577;-77
2023/03/25 09:48:38;;;;;;;20.40;4.35;;;;;;;8.93;100.00;99836.84;10366884;28;20038;-75
2023/03/25 09:53:58;;;;;;;18.63;3.28;;;;;;;9.12;100.00;99841.84;10365052;28;20079;-77
2023/03/25 09:59:08;;;;;;;10.02;2.97;;;;;;;9.61;100.00;99827.63;10380304;28;20033;-78
2023/03/25 10:04:30;;;;;;;18.23;4.13;;;;;;;9.62;100.00;99832.88;10322157;28;20092;-77
2023/03/25 10:09:37;;;;;;;17.17;2.72;;;;;;;9.95;100.00;99827.94;10397954;28;20046;-78
2023/03/25 10:15:01;;;;;;;13.38;2.88;;;;;;;10.24;100.00;99835.59;10366508;28;20467;-79
2023/03/25 10:20:06;;;;;;;12.82;3.75;;;;;;;9.64;100.00;99838.09;10350855;28;20490;-79
2023/03/25 10:25:13;;;;;;;12.02;2.47;;;;;;;9.28;100.00;99843.50;10385733;28;20572;-83
2023/03/25 10:30:34;;;;;;;16.63;3.63;;;;;;;9.68;100.00;99847.44;10367177;28;20040;-81
2023/03/25 10:35:38;;;;;;;14.15;2.65;;;;;;;10.18;100.00;99847.72;10388788;28;20128;-80
2023/03/25 10:40:43;;;;;;;14.88;3.20;;;;;;;10.52;100.00;99819.59;10389626;28;20042;-77
2023/03/25 10:45:44;;;;;;;11.27;3.17;;;;;;;9.79;100.00;99840.84;10403372;28;20054;-81
2023/03/25 10:50:45;;;;;;;15.52;2.20;;;;;;;9.62;100.00;99854.03;10315909;28;20037;-79
2023/03/25 10:55:46;;;;;;;24.95;4.05;;;;;;;9.81;100.00;99802.09;10332999;28;20042;-81
2023/03/25 11:00:47;;;;;;;13.07;2.67;;;;;;;10.09;100.00;99830.97;10346999;28;20042;-79
2023/03/25 11:05:48;;;;;;;13.77;2.53;;;;;;;10.08;100.00;99859.53;10332161;28;20034;-79
2023/03/25 11:10:50;;;;;;;10.35;2.78;;;;;;;10.17;100.00;99859.81;10306729;28;20035;-78
2023/03/25 11:15:52;;;;;;;19.00;3.65;;;;;;;9.87;100.00;99862.28;10364969;28;20489;-77
2023/03/25 11:20:58;;;;;;;12.00;2.67;;;;;;;9.58;100.00;99845.50;10330608;28;20093;-73
2023/03/25 11:26:05;;;;;;;24.95;3.58;;;;;;;9.60;100.00;99856.22;10387996;28;20033;-73
2023/03/25 11:31:07;;;;;;;29.33;5.55;;;;;;;9.54;100.00;99871.06;10389025;28;20044;-75
2023/03/25 11:36:26;;;;;;;18.90;4.00;;;;;;;9.99;100.00;99856.53;10407089;28;20037;-75
2023/03/25 11:41:28;;;;;;;15.32;3.15;;;;;;;10.58;100.00;99852.31;10407426;28;20041;-77
2023/03/25 11:46:29;;;;;;;19.73;3.53;;;;;;;10.60;100.00;99847.38;10393178;28;20095;-76
2023/03/25 11:51:31;;;;;;;15.85;3.63;;;;;;;9.76;100.00;99838.66;10395632;28;20037;-74
2023/03/25 11:56:37;;;;;;;15.63;3.55;;;;;;;9.77;100.00;99826.56;10366315;28;20065;-74
2023/03/25 12:01:43;;;;;;;16.15;3.30;;;;;;;10.00;100.00;99840.84;10370753;28;20049;-75
2023/03/25 12:07:07;;;;;;;16.38;2.72;;;;;;;10.30;100.00;99823.53;10364825;28;20042;-77
2023/03/25 12:12:26;;;;;;;12.43;3.00;;;;;;;10.24;100.00;99814.41;10329807;28;20077;-77
2023/03/25 12:17:39;;;;;;;14.80;2.33;;;;;;;10.37;100.00;99814.97;10368590;28;20041;-77
2023/03/25 12:23:13;;;;;;;22.15;2.58;;;;;;;10.54;100.00;99798.94;10370164;28;20054;-79
2023/03/25 12:28:44;;;;;;;10.43;1.90;;;;;;;10.75;100.00;99801.63;10369990;28;20318;-79
2023/03/25 12:34:20;;;;;;;8.55;1.98;;;;;;;10.92;100.00;99795.78;10398752;28;20037;-79
2023/03/25 12:39:57;;;;;;;15.38;3.17;;;;;;;11.78;100.00;99779.75;10391941;28;20076;-78
2023/03/25 12:45:03;;;;;;;9.30;1.55;;;;;;;12.05;100.00;99768.22;10393152;28;20041;-76
2023/03/25 12:50:24;;;;;;;9.18;2.25;;;;;;;11.65;100.00;99772.97;10410784;28;20037;-77
2023/03/25 12:55:35;;;;;;;10.75;1.92;;;;;;;11.25;100.00;99764.72;10392606;28;20735;-75
2023/03/25 13:00:44;;;;;;;10.75;2.33;;;;;;;11.57;100.00;99779.09;10394397;28;20030;-78
2023/03/25 13:05:57;;;;;;;11.48;1.92;;;;;;;12.63;100.00;99770.91;10408933;28;20046;-77
2023/03/25 13:11:05;;;;;;;8.55;1.80;;;;;;;13.01;100.00;99762.66;10392289;28;20095;-77
2023/03/25 13:16:12;;;;;;;11.43;1.85;;;;;;;13.10;100.00;99741.53;10367198;28;20482;-81
2023/03/25 13:21:20;;;;;;;11.40;1.70;;;;;;;12.93;100.00;99728.22;10368233;28;20585;-82
2023/03/25 13:26:23;;;;;;;13.38;2.45;;;;;;;12.26;100.00;99755.06;10334704;28;20037;-78
2023/03/25 13:31:26;;;;;;;11.13;2.75;;;;;;;12.65;100.00;99738.28;10372123;28;20061;-77
2023/03/25 13:36:28;;;;;;;7.68;1.73;;;;;;;12.02;100.00;99744.00;10390038;28;20075;-77
2023/03/25 13:41:33;;;;;;;7.65;1.70;;;;;;;11.54;100.00;99735.59;10374870;28;20529;-78
2023/03/25 13:46:43;;;;;;;15.02;2.97;;;;;;;11.85;100.00;99752.69;10350027;28;20072;-78
2023/03/25 13:51:44;;;;;;;11.32;2.13;;;;;;;11.19;100.00;99685.16;10335432;28;20045;-78
2023/03/25 13:56:57;;;;;;;9.38;2.35;;;;;;;10.42;100.00;99792.97;10350459;28;20030;-73
2023/03/25 14:02:00;;;;;;;7.40;1.80;;;;;;;9.58;100.00;99789.72;10403498;28;20118;-73
2023/03/25 14:07:11;;;;;;;10.68;1.65;;;;;;;9.77;100.00;99793.56;10389779;28;20044;-72
2023/03/25 14:12:14;;;;;;;9.18;2.03;;;;;;;9.93;100.00;99785.31;10405914;28;20049;-75
2023/03/25 14:17:15;;;;;;;10.25;2.20;;;;;;;9.97;100.00;99775.41;10373926;28;20034;-73
2023/03/25 14:22:16;;;;;;;10.88;2.30;;;;;;;9.98;100.00;99779.81;10373912;28;20033;-74
2023/03/25 14:27:28;;;;;;;10.55;2.00;;;;;;;10.07;100.00;99772.66;10387694;28;20045;-74
2023/03/25 14:32:36;;;;;;;11.20;2.70;;;;;;;10.07;100.00;99808.41;10388993;28;20140;-76
2023/03/25 14:37:36;;;;;;;9.40;2.67;;;;;;;9.25;100.00;99830.34;10389182;28;20043;-78
2023/03/25 14:42:58;;;;;;;5.47;1.70;;;;;;;8.38;100.00;99843.66;10354844;28;20050;-75
2023/03/25 14:47:58;;;;;;;9.07;2.38;;;;;;;8.33;100.00;99862.81;10362192;28;20046;-73
2023/03/25 14:53:03;;;;;;;5.35;1.52;;;;;;;8.29;100.00;99852.41;10348159;28;20426;-75
2023/03/25 14:58:25;;;;;;;6.40;1.50;;;;;;;8.41;100.00;99851.38;10357712;28;20033;-78
2023/03/25 15:03:34;;;;;;;4.15;1.20;;;;;;;8.36;100.00;99840.38;10358373;28;20068;-80
2023/03/25 15:08:38;;;;;;;3.80;1.15;;;;;;;8.59;100.00;99829.00;10346519;28;20038;-79
2023/03/25 15:13:39;;;;;;;14.48;1.60;;;;;;;8.64;100.00;99826.28;10333422;28;20048;-81
2023/03/25 15:18:42;;;;;;;3.70;1.80;;;;;;;8.55;100.00;99838.84;10356628;28;20093;-80
2023/03/25 15:23:52;;;;;;;6.82;2.35;;;;;;;8.44;100.00;99853.63;10356371;28;20448;-78
2023/03/25 15:29:11;;;;;;;7.00;1.63;;;;;;;8.54;100.00;99859.16;10372106;28;20517;-83
2023/03/25 15:34:24;;;;;;;7.43;1.83;;;;;;;9.00;100.00;99866.78;10391190;28;20041;-81
2023/03/25 15:39:58;;;;;;;5.00;1.30;;;;;;;8.81;100.00;99856.28;10413001;28;20494;-80
2023/03/25 15:45:10;;;;;;;8.27;2.80;;;;;;;8.89;100.00;99853.03;10412580;28;20042;-79
2023/03/25 15:50:13;;;;;;;8.82;1.67;;;;;;;8.83;100.00;99850.53;10411799;28;20628;-81
2023/03/25 15:55:18;;;;;;;8.13;2.38;;;;;;;8.67;100.00;99855.94;10411819;28;20033;-84
2023/03/25 16:00:30;;;;;;;10.07;2.15;;;;;;;8.65;100.00;99866.34;10370164;28;20040;-79
2023/03/25 16:05:36;;;;;;;9.30;1.75;;;;;;;8.74;100.00;99882.31;10321786;28;20068;-79
2023/03/25 16:10:38;;;;;;;10.13;1.93;;;;;;;8.57;100.00;99880.56;10297721;28;20129;-80
2023/03/25 16:15:38;;;;;;;6.90;1.92;;;;;;;8.50;100.00;99901.94;10354565;28;20048;-78
2023/03/25 16:20:40;;;;;;;7.72;2.33;;;;;;;8.40;100.00;99908.13;10376903;28;20045;-79
2023/03/25 16:25:41;;;;;;;7.53;2.38;;;;;;;8.17;100.00;99867.41;10393725;28;20068;-77
2023/03/25 16:30:42;;;;;;;9.00;1.98;;;;;;;8.49;100.00;99927.69;10364625;28;20045;-77
2023/03/25 16:35:48;;;;;;;9.43;1.70;;;;;;;8.31;100.00;99911.63;10392863;28;20042;-76
2023/03/25 16:40:49;;;;;;;6.03;1.70;;;;;;;8.38;100.00;99936.91;10415022;28;20121;-76
2023/03/25 16:45:50;;;;;;;14.13;2.97;;;;;;;8.09;100.00;99918.88;10433469;28;20465;-77
2023/03/25 16:50:51;;;;;;;12.27;2.90;;;;;;;7.95;100.00;99960.69;10416096;28;20036;-74
2023/03/25 16:55:57;;;;;;;7.78;2.78;;;;;;;7.61;100.00;99967.19;10400951;28;20095;-72
2023/03/25 17:01:07;;;;;;;5.68;2.28;;;;;;;7.17;100.00;99939.00;10434270;28;20028;-74
2023/03/25 17:06:40;;;;;;;5.28;2.42;;;;;;;7.67;100.00;99999.03;10415740;28;20021;-78
2023/03/25 17:11:40;;;;;;;10.98;2.50;;;;;;;7.59;100.00;99990.44;10404543;28;20072;-75
2023/03/25 17:16:41;;;;;;;11.77;3.42;;;;;;;7.72;100.00;100009.22;10416467;28;20064;-76
2023/03/25 17:22:15;;;;;;;19.80;3.38;;;;;;;7.66;100.00;100007.50;10403827;28;20048;-77
2023/03/25 17:27:22;;;;;;;8.70;2.40;;;;;;;7.62;100.00;100017.31;10431682;28;20041;-78
2023/03/25 17:32:23;;;;;;;13.00;2.45;;;;;;;7.66;100.00;100051.34;10431922;28;20060;-77
2023/03/25 17:37:24;;;;;;;11.70;2.85;;;;;;;7.64;100.00;100042.53;10414723;28;20048;-78
2023/03/25 17:42:24;;;;;;;15.35;3.10;;;;;;;7.65;100.00;100060.66;10404869;28;20084;-77
2023/03/25 17:47:25;;;;;;;14.48;2.50;;;;;;;7.68;100.00;100069.16;10391413;28;20041;-75
2023/03/25 17:52:26;;;;;;;11.02;3.05;;;;;;;7.66;100.00;100081.47;10390542;28;20033;-77
2023/03/25 17:57:27;;;;;;;10.40;2.85;;;;;;;7.62;100.00;100092.09;10405985;28;20034;-78
2023/03/25 18:02:27;;;;;;;12.35;3.22;;;;;;;7.62;100.00;100088.53;10389500;28;20033;-77
2023/03/25 18:07:28;;;;;;;10.68;3.85;;;;;;;7.68;100.00;100104.78;10389832;28;20037;-77
2023/03/25 18:12:29;;;;;;;10.50;2.78;;;;;;;7.67;100.00;100113.28;10373572;28;20049;-76
2023/03/25 18:17:29;;;;;;;12.05;2.47;;;;;;;7.67;100.00;100116.00;10357329;28;20056;-72
2023/03/25 18:22:30;;;;;;;21.52;4.00;;;;;;;7.71;100.00;100135.50;10405990;28;20033;-82
2023/03/25 18:27:32;;;;;;;13.93;4.57;;;;;;;7.54;100.00;100108.97;10375850;28;20046;-82
2023/03/25 18:32:34;;;;;;;12.70;2.78;;;;;;;7.67;100.00;100138.75;10435693;28;20063;-81
2023/03/25 18:37:34;;;;;;;22.17;4.13;;;;;;;7.67;100.00;100154.38;10443306;28;20033;-78
2023/03/25 18:42:35;;;;;;;23.55;5.63;;;;;;;7.65;100.00;100164.75;10411716;28;20111;-77
2023/03/25 18:47:35;;;;;;;19.95;4.03;;;;;;;7.42;100.00;100149.34;10429449;28;20088;-76
2023/03/25 18:52:36;;;;;;;20.70;4.30;;;;;;;7.52;100.00;100176.06;10405760;28;20041;-78
2023/03/25 18:57:36;;;;;;;16.98;4.72;;;;;;;7.56;100.00;100190.91;10437159;28;20313;-80
2023/03/25 19:02:37;;;;;;;24.60;5.75;;;;;;;7.48;100.00;100198.47;10420732;28;20065;-82
2023/03/25 19:07:38;;;;;;;15.38;4.47;;;;;;;7.45;100.00;100196.22;10438501;28;20104;-88
2023/03/25 19:12:39;;;;;;;16.95;3.85;;;;;;;7.39;100.00;100219.13;10424527;28;20037;-87
2023/03/25 19:17:40;;;;;;;11.32;3.38;;;;;;;7.36;100.00;100203.22;10424743;28;20040;-81
2023/03/25 19:22:41;;;;;;;13.52;3.42;;;;;;;7.46;100.00;100217.06;10424363;28;20083;-87
2023/03/25 19:27:42;;;;;;;16.70;4.47;;;;;;;7.43;100.00;100217.56;10430275;28;20155;-89
2023/03/25 19:32:42;;;;;;;15.18;4.18;;;;;;;7.46;100.00;100224.44;10457580;28;20039;-88
2023/03/25 19:37:54;;;;;;;17.42;4.30;;;;;;;7.42;100.00;100218.66;10387503;28;20029;-89
2023/03/25 19:42:56;;;;;;;23.08;5.22;;;;;;;7.51;100.00;100240.16;10425384;28;20037;-87
2023/03/25 19:47:57;;;;;;;16.38;4.90;;;;;;;7.33;100.00;100206.44;10379415;28;20105;-90
2023/03/25 19:52:58;;;;;;;25.80;4.78;;;;;;;7.53;100.00;100241.53;10388207;28;20049;-88
2023/03/25 19:57:59;;;;;;;17.75;4.20;;;;;;;7.54;100.00;100247.84;10412532;28;20082;-88
2023/03/25 20:03:00;;;;;;;17.90;4.47;;;;;;;7.54;100.00;100250.59;10367116;28;20521;-89
2023/03/25 20:08:01;;;;;;;18.83;3.50;;;;;;;7.53;100.00;100254.41;10370088;28;20094;-91
2023/03/25 20:13:02;;;;;;;8.85;2.95;;;;;;;7.49;100.00;100251.34;10342384;28;20091;-89
2023/03/25 20:18:02;;;;;;;12.13;3.55;;;;;;;7.50;100.00;100246.69;10373836;28;20034;-92
2023/03/25 20:23:02;;;;;;;10.60;2.80;;;;;;;7.53;100.00;100254.41;10369807;28;20091;-90
2023/03/25 20:28:03;;;;;;;13.60;2.95;;;;;;;7.52;100.00;100263.69;10386385;28;20042;-86
2023/03/25 20:33:04;;;;;;;18.58;5.05;;;;;;;7.35;100.00;100275.47;10389731;28;20064;-83
2023/03/25 20:38:04;;;;;;;21.35;4.57;;;;;;;7.16;100.00;100260.38;10342259;28;20030;-82
2023/03/25 20:43:05;;;;;;;14.57;3.28;;;;;;;7.05;100.00;100271.13;10343140;28;20029;-84
2023/03/25 20:48:07;;;;;;;14.15;3.80;;;;;;;7.13;100.00;100258.09;10360930;28;20053;-84
2023/03/25 20:53:07;;;;;;;15.25;4.45;;;;;;;7.04;100.00;100258.50;10375129;28;20391;-82
2023/03/25 20:58:10;;;;;;;19.13;4.22;;;;;;;7.02;100.00;100281.72;10373984;28;20030;-84
2023/03/25 21:03:11;;;;;;;12.80;3.10;;;;;;;7.01;100.00;100283.66;10378716;28;20088;-85
2023/03/25 21:08:12;;;;;;;17.48;4.07;;;;;;;6.96;100.00;100278.06;10359476;28;20043;-85
2023/03/25 21:13:13;;;;;;;16.38;2.70;;;;;;;6.93;100.00;100283.22;10363158;28;20049;-85
2023/03/25 21:18:14;;;;;;;14.50;2.92;;;;;;;6.92;100.00;100285.09;10390437;28;20056;-84
2023/03/25 21:23:15;;;;;;;15.82;2.75;;;;;;;6.83;100.00;100273.72;10356466;28;20049;-83
2023/03/25 21:28:16;;;;;;;14.13;2.97;;;;;;;6.85;100.00;100290.72;10388216;28;20132;-85
2023/03/25 21:33:17;;;;;;;11.38;2.13;;;;;;;6.84;100.00;100296.44;10356641;28;20513;-84
2023/03/25 21:38:23;;;;;;;15.98;3.22;;;;;;;6.86;100.00;100297.88;10576372;27;1266514;-86
2023/03/25 21:43:24;;;;;;;12.00;2.70;;;;;;;6.90;100.00;100306.41;10595972;27;20044;-86
2023/03/25 21:48:24;;;;;;;14.07;3.33;;;;;;;6.94;100.00;100312.22;10601756;28;20475;-85
2023/03/25 21:53:30;;;;;;;13.70;3.40;;;;;;;6.96;100.00;100302.69;10571949;28;20036;-86
2023/03/25 21:58:32;;;;;;;15.00;3.00;;;;;;;6.90;100.00;100292.72;10598289;27;20050;-87
2023/03/25 22:03:35;;;;;;;12.55;3.55;;;;;;;7.10;100.00;100332.53;10600757;27;20031;-87
2023/03/25 22:08:36;;;;;;;27.80;6.57;;;;;;;7.17;100.00;100335.94;10620462;27;20027;-85
2023/03/25 22:13:37;;;;;;;22.45;5.15;;;;;;;7.17;100.00;100338.66;10619645;27;20028;-85
2023/03/25 22:18:38;;;;;;;19.20;4.07;;;;;;;7.10;100.00;100338.81;10602123;27;20035;-86
2023/03/25 22:23:39;;;;;;;13.82;3.50;;;;;;;7.16;100.00;100342.50;10615163;27;20046;-87
2023/03/25 22:28:41;;;;;;;18.73;4.18;;;;;;;7.23;100.00;100359.59;10564857;27;20108;-87
2023/03/25 22:33:42;;;;;;;17.67;4.78;;;;;;;7.13;100.00;100356.66;10584304;27;20051;-85
2023/03/25 22:38:44;;;;;;;29.85;7.03;;;;;;;7.23;100.00;100371.38;10602456;27;20061;-87
2023/03/25 22:43:44;;;;;;;19.50;5.97;;;;;;;7.20;100.00;100384.72;10615177;27;20038;-86
2023/03/25 22:48:45;;;;;;;14.52;5.38;;;;;;;7.22;100.00;100386.16;10602707;27;22745;-85
2023/03/25 22:53:46;;;;;;;17.95;4.55;;;;;;;7.17;100.00;100377.00;10592257;28;20101;-86
2023/03/25 22:58:47;;;;;;;19.65;3.95;;;;;;;7.23;100.00;100403.41;10546611;28;20020;-86
2023/03/25 23:03:47;;;;;;;26.33;5.72;;;;;;;7.18;100.00;100417.00;10523613;28;20040;-86
2023/03/25 23:08:48;;;;;;;18.55;4.93;;;;;;;7.00;100.00;100396.09;10573413;28;20036;-87
2023/03/25 23:13:50;;;;;;;23.77;4.22;;;;;;;7.06;100.00;100414.28;10541808;28;20047;-86